Time;durP1;ratioP1;P1;durP2;ratioP2;P2;SDS_P1;SDS_P2;PMS_P1;PMS_P2;Temp;Humidity;BMP_temperature;BMP_pressure;BME280_temperature;BME280_humidity;BME280_pressure;Samples;Min_cycle;Max_cycle;Signal;HPM_P1;HPM_P2
2022/10/15 00:00:10;;;;;;;15.48;10.77;;;14.20;99.90;;;;;;5040337;28;20030;-75
2022/10/15 00:02:36;;;;;;;14.32;9.52;;;14.20;99.90;;;;;;5054646;28;20071;-76
2022/10/15 00:05:01;;;;;;;15.52;10.93;;;14.20;99.90;;;;;;5036513;28;20025;-75
2022/10/15 00:07:28;;;;;;;14.13;11.15;;;14.20;99.90;;;;;;5030081;28;20115;-76
2022/10/15 00:09:53;;;;;;;14.40;10.48;;;14.20;99.90;;;;;;5054679;28;20036;-76
2022/10/15 00:12:19;;;;;;;14.48;11.40;;;14.20;99.90;;;;;;5037060;28;20029;-76
2022/10/15 00:14:45;;;;;;;16.67;13.07;;;14.20;99.90;;;;;;5044652;28;20484;-75
2022/10/15 00:17:10;;;;;;;17.15;12.35;;;14.20;99.90;;;;;;5058934;28;20496;-75
2022/10/15 00:19:36;;;;;;;16.80;13.23;;;14.30;99.90;;;;;;5055504;28;20448;-76
2022/10/15 00:22:02;;;;;;;18.38;13.27;;;14.20;99.90;;;;;;5019275;28;20028;-75
2022/10/15 00:24:27;;;;;;;21.20;14.00;;;14.20;99.90;;;;;;5035915;28;20047;-75
2022/10/15 00:26:53;;;;;;;22.90;15.02;;;14.30;99.90;;;;;;5065340;28;20033;-75
2022/10/15 00:29:19;;;;;;;26.50;14.90;;;14.20;99.90;;;;;;5047617;28;20024;-77
2022/10/15 00:31:44;;;;;;;18.25;13.07;;;14.20;99.90;;;;;;5065295;28;20051;-75
2022/10/15 00:34:10;;;;;;;17.13;11.48;;;14.20;99.90;;;;;;5044697;28;20021;-75
2022/10/15 00:36:36;;;;;;;18.45;13.60;;;14.30;99.90;;;;;;5064957;28;20025;-76
2022/10/15 00:39:05;;;;;;;21.52;13.90;;;14.30;99.90;;;;;;5037199;28;20036;-75
2022/10/15 00:41:37;;;;;;;16.73;12.30;;;14.20;99.90;;;;;;5054744;28;20318;-75
2022/10/15 00:44:27;;;;;;;17.90;12.93;;;14.30;99.90;;;;;;5046907;28;20025;-76
2022/10/15 00:47:00;;;;;;;22.52;15.15;;;14.30;99.90;;;;;;5033834;28;20025;-75
2022/10/15 00:49:30;;;;;;;19.25;13.05;;;14.30;99.90;;;;;;5043098;28;20515;-75
2022/10/15 00:51:58;;;;;;;18.08;12.75;;;14.20;99.90;;;;;;5046723;28;20024;-77
2022/10/15 00:54:26;;;;;;;19.77;13.40;;;14.30;99.90;;;;;;5035971;28;20031;-74
2022/10/15 00:56:54;;;;;;;17.80;13.30;;;14.30;99.90;;;;;;5056272;28;20024;-75
2022/10/15 00:59:23;;;;;;;20.48;13.88;;;14.30;99.90;;;;;;5035375;28;20400;-75
2022/10/15 01:01:48;;;;;;;19.52;13.60;;;14.30;99.90;;;;;;5028447;28;20309;-75
2022/10/15 01:04:17;;;;;;;19.75;13.45;;;14.30;99.90;;;;;;5061283;28;20109;-75
2022/10/15 01:06:43;;;;;;;19.85;13.90;;;14.30;99.90;;;;;;5044820;28;20066;-75
2022/10/15 01:09:10;;;;;;;19.38;14.13;;;14.30;99.90;;;;;;5034755;28;20032;-76
2022/10/15 01:11:43;;;;;;;23.05;14.55;;;14.30;99.90;;;;;;5050909;28;20230;-75
2022/10/15 01:14:24;;;;;;;23.17;15.18;;;14.30;99.90;;;;;;5037435;28;20481;-74
2022/10/15 01:17:09;;;;;;;26.85;16.65;;;14.30;99.90;;;;;;5040960;28;20076;-75
2022/10/15 01:20:12;;;;;;;26.38;17.65;;;14.30;99.90;;;;;;5057763;28;20428;-75
2022/10/15 01:22:41;;;;;;;25.85;17.58;;;14.30;99.90;;;;;;5050481;28;20124;-74
2022/10/15 01:25:41;;;;;;;28.92;17.55;;;14.30;99.90;;;;;;5030744;28;20520;-74
2022/10/15 01:28:38;;;;;;;27.20;18.98;;;14.30;99.90;;;;;;5056849;28;20060;-75
2022/10/15 01:31:47;;;;;;;27.13;19.00;;;14.20;99.90;;;;;;5054350;28;20582;-75
2022/10/15 01:34:39;;;;;;;28.10;18.52;;;14.30;99.90;;;;;;5012824;28;20063;-76
2022/10/15 01:37:19;;;;;;;32.42;20.25;;;14.20;99.90;;;;;;5041197;28;20378;-74
2022/10/15 01:39:53;;;;;;;27.83;19.55;;;14.20;99.90;;;;;;5021178;28;20044;-77
2022/10/15 01:42:26;;;;;;;29.55;20.70;;;14.20;99.90;;;;;;5038614;28;20026;-75
2022/10/15 01:44:58;;;;;;;29.00;20.02;;;14.20;99.90;;;;;;5036161;28;20062;-75
2022/10/15 01:47:35;;;;;;;26.92;19.52;;;14.20;99.90;;;;;;5041668;28;20035;-76
2022/10/15 01:50:03;;;;;;;30.70;19.42;;;14.20;99.90;;;;;;5036059;28;20036;-76
2022/10/15 01:52:33;;;;;;;29.98;20.25;;;14.20;99.90;;;;;;5038738;28;20047;-75
2022/10/15 01:55:02;;;;;;;31.08;20.55;;;14.10;99.90;;;;;;5056890;28;20464;-74
2022/10/15 01:57:31;;;;;;;31.05;20.13;;;14.10;99.90;;;;;;5036394;28;20098;-74
2022/10/15 01:59:57;;;;;;;32.75;20.98;;;14.10;99.90;;;;;;5017853;28;20133;-75
2022/10/15 02:02:22;;;;;;;32.67;21.67;;;14.10;99.90;;;;;;5031417;28;20552;-77
2022/10/15 02:04:48;;;;;;;31.50;20.83;;;14.10;99.90;;;;;;5057063;28;20036;-75
2022/10/15 02:07:17;;;;;;;28.92;20.33;;;14.10;99.90;;;;;;5056678;28;20028;-77
2022/10/15 02:10:01;;;;;;;29.75;20.60;;;14.00;99.90;;;;;;5039623;28;20044;-75
2022/10/15 02:12:43;;;;;;;27.77;20.10;;;14.10;99.90;;;;;;5052684;28;20048;-76
2022/10/15 02:15:09;;;;;;;29.08;20.17;;;14.10;99.90;;;;;;5049490;28;20108;-76
2022/10/15 02:17:46;;;;;;;29.50;20.42;;;14.10;99.90;;;;;;5038491;28;20021;-75
2022/10/15 02:20:16;;;;;;;26.02;18.75;;;14.10;99.90;;;;;;5035743;28;20025;-74
2022/10/15 02:23:08;;;;;;;31.35;21.35;;;14.10;99.90;;;;;;5038954;28;20065;-74
2022/10/15 02:25:39;;;;;;;29.33;19.88;;;14.10;99.90;;;;;;5034285;28;20092;-77
2022/10/15 02:28:07;;;;;;;30.30;20.35;;;14.10;99.90;;;;;;5051044;28;20135;-74
2022/10/15 02:30:36;;;;;;;26.70;19.13;;;14.10;99.90;;;;;;5031579;28;20046;-75
2022/10/15 02:33:02;;;;;;;32.67;20.77;;;14.10;99.90;;;;;;5015026;28;20033;-75
2022/10/15 02:35:28;;;;;;;31.73;20.77;;;14.10;99.90;;;;;;5037215;28;20029;-75
2022/10/15 02:37:58;;;;;;;32.92;21.98;;;14.00;99.90;;;;;;5055528;28;20439;-75
2022/10/15 02:40:28;;;;;;;29.40;19.90;;;14.00;99.90;;;;;;5052720;28;20041;-75
2022/10/15 02:42:55;;;;;;;34.53;22.33;;;14.00;99.90;;;;;;5054694;28;20035;-77
2022/10/15 02:45:20;;;;;;;33.78;21.42;;;14.00;99.90;;;;;;5031428;28;20143;-76
2022/10/15 02:47:46;;;;;;;32.65;20.40;;;14.00;99.90;;;;;;5033644;28;20482;-75
2022/10/15 02:50:12;;;;;;;30.95;20.92;;;14.00;99.90;;;;;;5032071;28;20033;-76
2022/10/15 02:52:37;;;;;;;32.10;20.25;;;14.00;99.90;;;;;;5034293;28;20193;-75
2022/10/15 02:55:03;;;;;;;30.77;20.50;;;14.00;99.90;;;;;;5051951;28;20031;-75
2022/10/15 02:57:29;;;;;;;33.22;21.80;;;14.00;99.90;;;;;;5033090;28;20485;-74
2022/10/15 02:59:54;;;;;;;29.95;19.08;;;14.00;99.90;;;;;;5051336;28;20025;-76
2022/10/15 03:02:20;;;;;;;27.40;19.25;;;13.90;99.90;;;;;;5047929;28;20087;-75
2022/10/15 03:04:46;;;;;;;27.48;19.13;;;13.90;99.90;;;;;;5034934;28;20032;-75
2022/10/15 03:07:13;;;;;;;30.13;18.73;;;13.80;99.90;;;;;;5035469;28;20032;-75
2022/10/15 03:09:38;;;;;;;28.13;19.67;;;13.70;99.90;;;;;;5035107;28;20021;-75
2022/10/15 03:12:04;;;;;;;27.27;17.55;;;13.70;99.90;;;;;;5016200;28;20017;-75
2022/10/15 03:14:30;;;;;;;29.02;18.83;;;13.60;99.90;;;;;;5031636;28;20017;-75
2022/10/15 03:16:56;;;;;;;28.10;17.95;;;13.50;99.90;;;;;;5049532;28;20061;-75
2022/10/15 03:19:22;;;;;;;27.63;17.75;;;13.50;99.90;;;;;;5019426;28;20083;-76
2022/10/15 03:21:47;;;;;;;28.52;17.55;;;13.50;99.90;;;;;;5038484;28;20112;-75
2022/10/15 03:24:13;;;;;;;26.40;16.83;;;13.50;99.90;;;;;;5037877;28;20048;-75
2022/10/15 03:26:39;;;;;;;26.25;17.33;;;13.50;99.90;;;;;;5054411;28;20028;-75
2022/10/15 03:29:04;;;;;;;27.40;17.92;;;13.50;99.90;;;;;;5035915;28;20485;-75
2022/10/15 03:31:30;;;;;;;25.67;17.25;;;13.50;99.90;;;;;;5052203;28;20119;-74
2022/10/15 03:33:56;;;;;;;26.23;16.88;;;13.50;99.90;;;;;;5031690;28;20437;-76
2022/10/15 03:36:22;;;;;;;27.08;17.55;;;13.40;99.90;;;;;;5036908;28;20056;-76
2022/10/15 03:38:48;;;;;;;24.35;16.13;;;13.40;99.90;;;;;;5036873;28;20021;-74
2022/10/15 03:41:14;;;;;;;27.60;17.60;;;13.40;99.90;;;;;;5036124;28;20036;-76
2022/10/15 03:43:39;;;;;;;31.92;19.08;;;13.40;99.90;;;;;;5038391;28;20021;-75
2022/10/15 03:46:05;;;;;;;26.20;16.58;;;13.40;99.90;;;;;;5037802;28;20211;-75
2022/10/15 03:48:31;;;;;;;34.72;18.92;;;13.30;99.90;;;;;;5035402;28;20513;-76
2022/10/15 03:50:57;;;;;;;29.75;17.88;;;13.30;99.90;;;;;;5032474;28;20037;-75
2022/10/15 03:53:23;;;;;;;30.05;17.83;;;13.30;99.90;;;;;;5049334;28;20025;-75
2022/10/15 03:55:49;;;;;;;28.92;18.45;;;13.30;99.90;;;;;;5035524;28;20036;-76
2022/10/15 03:58:14;;;;;;;25.85;17.08;;;13.40;99.90;;;;;;5035237;28;20028;-75
2022/10/15 04:00:41;;;;;;;29.20;17.75;;;13.40;99.90;;;;;;5020566;28;20021;-75
2022/10/15 04:03:07;;;;;;;26.13;17.52;;;13.40;99.90;;;;;;5029549;28;20041;-75
2022/10/15 04:05:33;;;;;;;29.25;17.15;;;13.50;99.90;;;;;;5048160;28;20025;-75
2022/10/15 04:07:58;;;;;;;26.90;17.08;;;13.50;99.90;;;;;;5053810;28;20037;-75
2022/10/15 04:10:24;;;;;;;28.88;17.15;;;13.50;99.90;;;;;;5041665;28;20044;-77
2022/10/15 04:12:50;;;;;;;29.65;18.40;;;13.50;99.90;;;;;;5054679;28;20059;-75
2022/10/15 04:15:15;;;;;;;30.48;17.88;;;13.50;99.90;;;;;;5032841;28;20041;-76
2022/10/15 04:17:41;;;;;;;31.65;18.42;;;13.50;99.90;;;;;;5053222;28;20428;-77
2022/10/15 04:20:07;;;;;;;28.90;16.88;;;13.50;99.90;;;;;;5030509;28;20030;-76
2022/10/15 04:22:33;;;;;;;30.15;17.67;;;13.50;99.90;;;;;;5062262;28;20107;-77
2022/10/15 04:24:59;;;;;;;29.35;17.65;;;13.60;99.90;;;;;;5029355;28;20120;-76
2022/10/15 04:27:24;;;;;;;29.73;17.73;;;13.60;99.90;;;;;;5033494;28;20032;-75
2022/10/15 04:29:50;;;;;;;31.48;18.05;;;13.60;99.90;;;;;;5048253;28;20053;-74
2022/10/15 04:32:16;;;;;;;34.60;20.38;;;13.60;99.90;;;;;;5037475;28;20082;-75
2022/10/15 04:34:42;;;;;;;38.00;20.73;;;13.60;99.90;;;;;;5051897;28;20116;-74
2022/10/15 04:37:08;;;;;;;38.08;20.80;;;13.60;99.90;;;;;;5044887;28;20029;-74
2022/10/15 04:39:35;;;;;;;34.00;20.58;;;13.50;99.90;;;;;;5043412;28;20104;-74
2022/10/15 04:42:00;;;;;;;40.80;21.67;;;13.50;99.90;;;;;;5041702;28;20427;-74
2022/10/15 04:44:26;;;;;;;41.70;21.90;;;13.50;99.90;;;;;;5069371;28;20036;-77
2022/10/15 04:46:52;;;;;;;40.75;22.15;;;13.50;99.90;;;;;;5036034;28;20415;-76
2022/10/15 04:49:17;;;;;;;41.42;21.63;;;13.50;99.90;;;;;;5044678;28;20130;-77
2022/10/15 04:51:43;;;;;;;40.88;22.95;;;13.50;99.90;;;;;;5034752;28;20087;-76
2022/10/15 04:54:08;;;;;;;39.08;22.13;;;13.50;99.90;;;;;;5045900;28;20481;-76
2022/10/15 04:56:34;;;;;;;41.65;22.98;;;13.50;99.90;;;;;;5031542;28;20033;-76
2022/10/15 04:59:00;;;;;;;39.97;22.33;;;13.50;99.90;;;;;;5050745;28;20025;-75
2022/10/15 05:01:25;;;;;;;42.45;22.63;;;13.50;99.90;;;;;;5037940;28;20040;-76
2022/10/15 05:03:51;;;;;;;48.25;24.92;;;13.50;99.90;;;;;;5067753;28;20025;-75
2022/10/15 05:06:21;;;;;;;44.25;24.45;;;13.50;99.90;;;;;;5067437;28;20433;-76
2022/10/15 05:08:48;;;;;;;41.35;23.40;;;13.50;99.90;;;;;;5025280;28;20570;-75
2022/10/15 05:11:23;;;;;;;42.67;23.38;;;13.50;99.90;;;;;;5021267;28;20032;-75
2022/10/15 05:13:49;;;;;;;48.17;24.08;;;13.50;99.90;;;;;;5055636;28;20310;-75
2022/10/15 05:16:27;;;;;;;49.03;25.17;;;13.50;99.90;;;;;;5067198;28;20020;-77
2022/10/15 05:18:58;;;;;;;47.92;23.58;;;13.50;99.90;;;;;;5048547;28;20051;-75
2022/10/15 05:21:24;;;;;;;;;;;13.50;99.90;;;;;;5066948;28;20032;-75
2022/10/15 05:23:50;;;;;;;43.08;23.38;;;13.50;99.90;;;;;;5048428;28;20299;-75
2022/10/15 05:26:19;;;;;;;45.75;24.38;;;13.50;99.90;;;;;;5059685;28;20043;-75
2022/10/15 05:28:45;;;;;;;44.17;24.10;;;13.50;99.90;;;;;;5038074;28;20423;-75
2022/10/15 05:31:17;;;;;;;46.58;24.02;;;13.50;99.90;;;;;;5066127;28;20090;-74
2022/10/15 05:33:42;;;;;;;43.17;24.42;;;13.40;99.90;;;;;;5066580;28;20107;-75
2022/10/15 05:36:13;;;;;;;42.95;23.48;;;13.40;99.90;;;;;;5047274;28;20104;-75
2022/10/15 05:38:40;;;;;;;43.88;22.88;;;13.40;99.90;;;;;;5046823;28;20025;-75
2022/10/15 05:41:06;;;;;;;46.95;24.00;;;13.40;99.90;;;;;;5057469;28;20057;-74
2022/10/15 05:43:32;;;;;;;41.85;22.75;;;13.40;99.90;;;;;;5051377;28;20512;-76
2022/10/15 05:45:57;;;;;;;44.78;23.60;;;13.40;99.90;;;;;;5041528;28;20036;-75
2022/10/15 05:48:23;;;;;;;45.53;23.98;;;13.40;99.90;;;;;;5047581;28;20079;-74
2022/10/15 05:50:49;;;;;;;43.55;23.27;;;13.40;99.90;;;;;;5046163;28;20056;-74
2022/10/15 05:53:15;;;;;;;49.25;24.52;;;13.40;99.90;;;;;;5064731;28;20021;-74
2022/10/15 05:55:40;;;;;;;47.72;24.95;;;13.40;99.90;;;;;;5026388;28;20036;-75
2022/10/15 05:58:06;;;;;;;46.63;24.80;;;13.40;99.90;;;;;;5052212;28;20118;-75
2022/10/15 06:00:32;;;;;;;47.40;24.63;;;13.40;99.90;;;;;;5035403;28;20489;-75
2022/10/15 06:02:58;;;;;;;48.40;25.17;;;13.40;99.90;;;;;;5041491;28;20029;-75
2022/10/15 06:05:24;;;;;;;43.92;24.27;;;13.40;99.90;;;;;;5059064;28;20376;-76
2022/10/15 06:07:50;;;;;;;24.77;13.27;;;13.40;99.90;;;;;;5063606;28;20029;-75
2022/10/15 06:10:16;;;;;;;33.42;17.42;;;13.70;99.90;;;;;;5025925;28;20032;-75
2022/10/15 06:12:43;;;;;;;43.67;22.85;;;14.60;99.90;;;;;;5029982;28;20033;-76
2022/10/15 06:15:09;;;;;;;40.88;22.25;;;14.70;99.90;;;;;;5060249;28;20043;-76
2022/10/15 06:17:35;;;;;;;45.80;25.08;;;14.60;99.90;;;;;;5049754;28;20124;-75
2022/10/15 06:20:00;;;;;;;43.70;23.85;;;14.30;99.90;;;;;;5039654;28;20287;-75
2022/10/15 06:22:29;;;;;;;51.67;25.83;;;14.10;99.90;;;;;;5044070;28;20039;-75
2022/10/15 06:24:55;;;;;;;44.28;24.85;;;14.00;99.90;;;;;;5042481;28;20055;-75
2022/10/15 06:27:21;;;;;;;46.05;23.60;;;13.90;99.90;;;;;;5025722;28;20029;-75
2022/10/15 06:29:46;;;;;;;49.53;25.85;;;13.80;99.90;;;;;;5053304;28;20104;-75
2022/10/15 06:32:12;;;;;;;47.42;26.52;;;13.70;99.90;;;;;;5030066;28;20034;-75
2022/10/15 06:34:38;;;;;;;46.60;25.33;;;13.70;99.90;;;;;;5031536;28;20480;-75
2022/10/15 06:37:03;;;;;;;51.20;27.25;;;13.70;99.90;;;;;;5050651;28;20498;-75
2022/10/15 06:39:29;;;;;;;46.30;25.83;;;13.70;99.90;;;;;;5040055;28;20047;-75
2022/10/15 06:41:55;;;;;;;49.13;26.60;;;13.60;99.90;;;;;;5060518;28;20035;-74
2022/10/15 06:44:20;;;;;;;48.50;24.83;;;13.60;99.90;;;;;;5040045;28;20059;-75
2022/10/15 06:46:46;;;;;;;46.00;24.58;;;13.60;99.90;;;;;;5029353;28;20029;-76
2022/10/15 06:49:12;;;;;;;46.45;24.08;;;13.60;99.90;;;;;;5035946;28;20028;-75
2022/10/15 06:51:37;;;;;;;48.38;25.90;;;13.60;99.90;;;;;;5048525;28;20496;-75
2022/10/15 06:54:03;;;;;;;43.63;23.98;;;13.60;99.90;;;;;;5050391;28;20036;-75
2022/10/15 06:56:29;;;;;;;42.10;23.63;;;13.60;99.90;;;;;;5055772;28;20033;-77
2022/10/15 06:58:55;;;;;;;41.45;22.83;;;13.60;99.90;;;;;;5059178;28;20488;-75
2022/10/15 07:01:20;;;;;;;43.55;24.60;;;13.60;99.90;;;;;;5024217;28;20095;-76
2022/10/15 07:03:50;;;;;;;44.72;24.15;;;13.60;99.90;;;;;;5057366;28;20373;-76
2022/10/15 07:06:16;;;;;;;46.25;25.52;;;13.60;99.90;;;;;;5050091;28;20060;-75
2022/10/15 07:08:43;;;;;;;47.10;25.83;;;13.60;99.90;;;;;;5052114;28;20028;-75
2022/10/15 07:11:09;;;;;;;42.28;23.48;;;13.60;99.90;;;;;;5052290;28;20080;-75
2022/10/15 07:13:35;;;;;;;46.92;25.55;;;13.60;99.90;;;;;;5036529;28;20049;-74
2022/10/15 07:16:09;;;;;;;49.63;25.80;;;13.60;99.90;;;;;;5020799;28;20084;-75
2022/10/15 07:18:35;;;;;;;41.08;23.50;;;13.60;99.90;;;;;;5044454;28;20091;-77
2022/10/15 07:21:03;;;;;;;47.47;25.60;;;13.60;99.90;;;;;;5050278;28;20125;-75
2022/10/15 07:23:29;;;;;;;44.38;25.55;;;13.60;99.90;;;;;;5028696;28;21054;-75
2022/10/15 07:25:59;;;;;;;46.30;23.73;;;13.60;99.90;;;;;;5052014;28;20025;-76
2022/10/15 07:28:25;;;;;;;46.33;24.05;;;13.70;99.90;;;;;;5034801;28;20033;-77
2022/10/15 07:30:51;;;;;;;45.58;23.77;;;13.70;99.90;;;;;;5040865;28;20029;-74
2022/10/15 07:33:17;;;;;;;44.13;22.45;;;13.80;99.90;;;;;;5035487;28;20078;-75
2022/10/15 07:35:42;;;;;;;40.20;22.33;;;13.80;99.90;;;;;;5050669;28;20076;-75
2022/10/15 07:38:08;;;;;;;46.30;22.90;;;13.80;99.90;;;;;;5034150;28;20028;-77
2022/10/15 07:40:34;;;;;;;40.08;21.92;;;13.80;99.90;;;;;;5039382;28;20032;-76
2022/10/15 07:42:59;;;;;;;39.97;23.30;;;13.90;99.90;;;;;;5031317;28;20491;-76
2022/10/15 07:45:26;;;;;;;41.03;22.60;;;13.90;99.90;;;;;;5050387;28;20037;-75
2022/10/15 07:47:52;;;;;;;46.13;23.63;;;13.90;99.90;;;;;;5033133;28;20531;-76
2022/10/15 07:50:19;;;;;;;47.55;23.30;;;13.90;99.90;;;;;;5032759;28;20033;-75
2022/10/15 07:52:45;;;;;;;38.50;21.48;;;13.90;99.90;;;;;;5051886;28;20017;-75
2022/10/15 07:55:11;;;;;;;40.50;22.33;;;13.90;99.90;;;;;;5037682;28;20460;-75
2022/10/15 07:57:36;;;;;;;44.30;23.17;;;14.00;99.90;;;;;;5015734;28;20094;-76
2022/10/15 08:00:04;;;;;;;44.35;24.25;;;14.00;99.90;;;;;;5033045;28;20871;-75
2022/10/15 08:02:30;;;;;;;45.35;24.00;;;14.00;99.90;;;;;;5033498;28;20024;-75
2022/10/15 08:04:55;;;;;;;43.85;23.67;;;13.90;99.90;;;;;;5032951;28;20033;-75
2022/10/15 08:07:21;;;;;;;41.53;21.63;;;13.80;99.90;;;;;;5033731;28;20053;-76
2022/10/15 08:09:47;;;;;;;39.15;22.20;;;13.90;99.90;;;;;;5053401;28;20032;-77
2022/10/15 08:12:13;;;;;;;41.13;23.42;;;13.90;99.90;;;;;;5054630;28;20036;-75
2022/10/15 08:14:39;;;;;;;38.03;21.75;;;13.90;99.90;;;;;;5054931;28;20029;-75
2022/10/15 08:17:05;;;;;;;40.50;22.52;;;14.10;99.90;;;;;;5055179;28;20025;-75
2022/10/15 08:19:32;;;;;;;41.10;22.25;;;14.10;99.90;;;;;;5057869;28;20052;-76
2022/10/15 08:21:57;;;;;;;40.92;22.92;;;14.20;99.90;;;;;;5038790;28;20025;-75
2022/10/15 08:24:23;;;;;;;39.30;22.30;;;14.20;99.90;;;;;;5035884;28;20076;-75
2022/10/15 08:26:49;;;;;;;46.17;23.70;;;14.10;99.90;;;;;;5037674;28;20025;-75
2022/10/15 08:29:15;;;;;;;44.80;22.58;;;14.00;99.90;;;;;;5054617;28;20378;-75
2022/10/15 08:31:41;;;;;;;36.58;20.98;;;14.00;99.90;;;;;;5053071;28;20064;-77
2022/10/15 08:34:07;;;;;;;42.53;22.20;;;14.00;99.90;;;;;;5053036;28;20032;-76
2022/10/15 08:36:33;;;;;;;38.20;21.48;;;14.00;99.90;;;;;;5032555;28;20021;-75
2022/10/15 08:39:00;;;;;;;42.83;22.42;;;14.00;99.90;;;;;;5036970;28;20021;-75
2022/10/15 08:41:34;;;;;;;38.88;21.02;;;13.90;99.90;;;;;;5037522;28;20025;-75
2022/10/15 08:44:01;;;;;;;35.28;19.98;;;13.90;99.90;;;;;;5017616;28;20117;-75
2022/10/15 08:46:40;;;;;;;32.72;19.10;;;13.90;99.90;;;;;;5035620;28;20040;-75
2022/10/15 08:49:28;;;;;;;44.00;21.70;;;13.80;99.90;;;;;;5019794;28;20661;-75
2022/10/15 08:52:03;;;;;;;33.05;19.15;;;13.80;99.90;;;;;;5053457;28;20029;-75
2022/10/15 08:54:32;;;;;;;35.25;18.98;;;13.90;99.90;;;;;;5036136;28;20056;-74
2022/10/15 08:57:29;;;;;;;30.58;18.30;;;13.90;99.90;;;;;;5055285;28;20021;-76
2022/10/15 09:00:03;;;;;;;33.28;19.05;;;13.90;99.90;;;;;;5036456;28;20120;-76
2022/10/15 09:02:37;;;;;;;39.63;21.38;;;13.90;99.90;;;;;;5034496;28;20572;-76
2022/10/15 09:05:12;;;;;;;30.15;18.33;;;13.90;99.90;;;;;;5035187;28;20577;-76
2022/10/15 09:07:46;;;;;;;35.35;20.13;;;14.00;99.90;;;;;;5035769;28;20032;-77
2022/10/15 09:10:41;;;;;;;35.13;19.15;;;14.00;99.90;;;;;;5053769;28;20032;-74
2022/10/15 09:13:14;;;;;;;32.97;19.85;;;14.00;99.90;;;;;;5016182;28;20493;-75
2022/10/15 09:16:00;;;;;;;32.45;17.77;;;14.10;99.90;;;;;;5054291;28;20026;-76
2022/10/15 09:18:30;;;;;;;34.22;19.38;;;14.30;99.90;;;;;;5034271;28;20067;-75
2022/10/15 09:20:57;;;;;;;34.72;18.83;;;14.40;99.90;;;;;;5035051;28;20032;-75
2022/10/15 09:23:25;;;;;;;31.10;18.45;;;14.40;99.90;;;;;;5019474;28;20029;-74
2022/10/15 09:26:06;;;;;;;28.85;17.13;;;14.50;99.90;;;;;;5054092;28;20032;-76
2022/10/15 09:28:53;;;;;;;28.55;16.23;;;14.70;99.90;;;;;;5047502;28;20397;-76
2022/10/15 09:31:25;;;;;;;36.67;18.58;;;14.90;99.90;;;;;;5013787;28;20135;-75
2022/10/15 09:34:04;;;;;;;32.45;16.92;;;15.00;99.90;;;;;;5036144;28;20027;-75
2022/10/15 09:36:52;;;;;;;25.02;15.13;;;15.00;99.90;;;;;;5055739;28;20396;-76
2022/10/15 09:39:38;;;;;;;24.13;14.38;;;15.10;99.90;;;;;;5058930;28;20028;-78
2022/10/15 09:42:30;;;;;;;25.42;13.30;;;15.20;99.90;;;;;;5052717;28;20028;-76
2022/10/15 09:45:01;;;;;;;30.02;15.15;;;15.50;99.90;;;;;;5058591;23;20049;-77
2022/10/15 09:47:32;;;;;;;26.25;15.85;;;15.70;99.90;;;;;;5010968;28;20481;-76
2022/10/15 09:49:58;;;;;;;20.75;12.32;;;15.80;99.90;;;;;;5015431;28;20190;-77
2022/10/15 09:52:33;;;;;;;26.58;14.57;;;16.20;99.90;;;;;;5015475;28;20068;-77
2022/10/15 09:55:29;;;;;;;22.10;13.27;;;16.50;99.90;;;;;;5034263;28;20099;-76
2022/10/15 09:58:00;;;;;;;23.27;13.90;;;17.00;99.90;;;;;;5016825;28;20029;-78
2022/10/15 10:00:51;;;;;;;21.88;12.43;;;17.90;99.90;;;;;;5001292;28;20026;-76
2022/10/15 10:03:17;;;;;;;17.23;10.15;;;18.70;99.90;;;;;;5017530;28;20025;-77
2022/10/15 10:05:44;;;;;;;23.77;13.00;;;19.50;99.90;;;;;;5014944;28;20044;-78
2022/10/15 10:08:20;;;;;;;23.88;11.98;;;19.90;99.90;;;;;;5018145;28;20217;-77
2022/10/15 10:10:57;;;;;;;17.27;6.65;;;20.60;99.90;;;;;;5035344;28;20523;-77
2022/10/15 10:13:26;;;;;;;12.25;7.18;;;20.90;99.90;;;;;;5017059;28;20021;-77
2022/10/15 10:15:54;;;;;;;15.75;7.10;;;20.70;99.90;;;;;;5011827;28;20223;-76
2022/10/15 10:18:24;;;;;;;18.02;10.65;;;21.00;99.90;;;;;;5017361;28;20469;-76
2022/10/15 10:20:58;;;;;;;14.35;9.68;;;21.60;99.90;;;;;;5034809;28;20128;-77
2022/10/15 10:23:33;;;;;;;15.25;9.32;;;22.10;99.90;;;;;;5033126;28;20034;-75
2022/10/15 10:26:02;;;;;;;17.00;10.48;;;21.90;99.90;;;;;;5017745;28;20033;-77
2022/10/15 10:28:49;;;;;;;11.20;6.15;;;22.00;99.90;;;;;;5031914;28;20032;-78
2022/10/15 10:31:14;;;;;;;10.13;7.80;;;22.30;99.90;;;;;;5000998;28;20033;-79
2022/10/15 10:33:48;;;;;;;11.70;8.00;;;22.30;99.80;;;;;;5003195;28;20048;-78
2022/10/15 10:36:24;;;;;;;10.32;7.78;;;22.70;99.00;;;;;;5036945;28;20489;-79
2022/10/15 10:39:35;;;;;;;12.93;9.00;;;22.70;98.70;;;;;;5016979;28;20029;-78
2022/10/15 10:42:21;;;;;;;11.20;8.05;;;22.40;98.10;;;;;;5011456;28;20028;-77
2022/10/15 10:44:47;;;;;;;11.35;7.05;;;22.10;98.20;;;;;;5032250;28;20309;-77
2022/10/15 10:47:24;;;;;;;15.60;9.38;;;22.10;99.00;;;;;;5015020;28;20022;-77
2022/10/15 10:49:56;;;;;;;10.63;8.10;;;21.80;98.20;;;;;;5014001;28;20044;-76
2022/10/15 10:52:32;;;;;;;8.75;6.63;;;21.00;99.60;;;;;;5025848;28;20025;-76
2022/10/15 10:55:19;;;;;;;12.55;7.82;;;20.50;99.90;;;;;;4997112;28;20017;-77
2022/10/15 10:57:51;;;;;;;12.95;8.13;;;19.80;99.90;;;;;;5017022;28;20240;-77
2022/10/15 11:00:42;;;;;;;15.00;9.30;;;19.10;99.90;;;;;;5017659;28;20033;-78
2022/10/15 11:03:36;;;;;;;15.90;9.30;;;18.60;99.90;;;;;;5031686;28;20100;-77
2022/10/15 11:06:10;;;;;;;14.10;8.63;;;18.20;99.90;;;;;;5025538;28;20037;-77
2022/10/15 11:08:42;;;;;;;14.80;9.55;;;18.00;99.90;;;;;;5026894;28;20079;-77
2022/10/15 11:11:32;;;;;;;16.02;9.50;;;17.90;99.90;;;;;;5026628;28;20040;-76
2022/10/15 11:14:21;;;;;;;11.57;8.18;;;17.80;99.90;;;;;;5043491;28;20033;-76
2022/10/15 11:17:15;;;;;;;12.70;7.90;;;17.80;99.90;;;;;;5033064;28;20032;-78
2022/10/15 11:19:57;;;;;;;9.27;6.28;;;17.80;99.90;;;;;;5040286;28;20568;-77
2022/10/15 11:22:35;;;;;;;15.55;7.53;;;17.80;99.90;;;;;;5019218;28;20030;-77
2022/10/15 11:25:26;;;;;;;13.35;7.00;;;17.80;99.90;;;;;;5016257;28;20021;-76
2022/10/15 11:27:57;;;;;;;9.75;6.38;;;17.70;99.90;;;;;;5032790;28;20026;-76
2022/10/15 11:30:32;;;;;;;10.70;5.93;;;17.60;99.90;;;;;;5033582;28;20026;-78
2022/10/15 11:33:34;;;;;;;9.05;6.15;;;17.70;99.90;;;;;;5028563;28;20117;-77
2022/10/15 11:36:21;;;;;;;12.35;6.25;;;17.80;99.90;;;;;;5033339;28;20034;-76
2022/10/15 11:38:52;;;;;;;9.35;5.47;;;17.60;99.90;;;;;;5016343;28;20032;-76
2022/10/15 11:41:38;;;;;;;10.18;4.72;;;17.40;99.90;;;;;;5029484;28;20018;-77
2022/10/15 11:44:15;;;;;;;8.95;4.20;;;17.30;99.90;;;;;;5007766;28;20438;-77
2022/10/15 11:47:06;;;;;;;6.50;3.80;;;17.20;99.90;;;;;;5017473;28;20057;-77
2022/10/15 11:49:59;;;;;;;8.05;3.30;;;17.10;99.90;;;;;;5036689;28;20601;-76
2022/10/15 11:52:31;;;;;;;7.90;3.25;;;16.80;99.90;;;;;;5018154;28;20032;-77
2022/10/15 11:55:07;;;;;;;9.25;3.05;;;16.70;99.90;;;;;;5035108;28;20026;-76
2022/10/15 11:57:34;;;;;;;8.18;3.40;;;16.70;99.90;;;;;;5037380;28;20025;-76
2022/10/15 12:00:11;;;;;;;9.43;3.47;;;16.70;99.90;;;;;;5037432;28;20125;-77
2022/10/15 12:02:38;;;;;;;5.30;2.70;;;16.80;99.90;;;;;;5035538;28;20040;-78
2022/10/15 12:05:20;;;;;;;6.55;3.17;;;16.90;99.90;;;;;;5019300;28;20037;-78
2022/10/15 12:07:48;;;;;;;5.75;2.50;;;16.90;99.90;;;;;;5037400;28;20076;-78
2022/10/15 12:10:29;;;;;;;7.68;3.45;;;17.00;99.90;;;;;;5002393;28;20033;-78
2022/10/15 12:13:12;;;;;;;6.95;3.22;;;17.10;99.90;;;;;;5016859;28;20042;-78
2022/10/15 12:15:44;;;;;;;4.88;3.20;;;17.10;99.90;;;;;;5002344;28;20029;-79
2022/10/15 12:18:09;;;;;;;;;;;17.20;99.90;;;;;;5001106;28;20088;-76
2022/10/15 12:20:35;;;;;;;7.50;2.90;;;17.20;99.90;;;;;;5033176;28;19910;-79
2022/10/15 12:23:02;;;;;;;6.93;3.47;;;17.20;99.90;;;;;;5020705;28;20041;-76
2022/10/15 12:25:48;;;;;;;7.43;3.22;;;17.00;99.90;;;;;;5019390;28;20405;-77
2022/10/15 12:28:23;;;;;;;6.82;3.90;;;17.00;99.90;;;;;;5020328;28;20399;-78
2022/10/15 12:30:53;;;;;;;5.30;3.00;;;17.00;99.90;;;;;;5016394;28;20103;-77
2022/10/15 12:33:24;;;;;;;12.38;4.32;;;16.90;99.90;;;;;;5034408;28;20037;-76
2022/10/15 12:35:55;;;;;;;7.68;4.00;;;16.90;99.90;;;;;;5018384;28;20022;-77
2022/10/15 12:38:26;;;;;;;7.35;3.47;;;16.80;99.90;;;;;;5019210;28;20025;-76
2022/10/15 12:40:58;;;;;;;5.00;3.10;;;16.80;99.90;;;;;;5019563;28;20040;-77
2022/10/15 12:43:25;;;;;;;6.00;3.50;;;16.80;99.90;;;;;;5039332;28;20504;-77
2022/10/15 12:45:57;;;;;;;10.95;4.57;;;16.70;99.90;;;;;;5003451;28;20041;-75
2022/10/15 12:48:35;;;;;;;7.30;4.20;;;16.70;99.90;;;;;;5036016;28;20040;-76